Time;durP1;ratioP1;P1;durP2;ratioP2;P2;SDS_P1;SDS_P2;PMS_P1;PMS_P2;Temp;Humidity;BMP_temperature;BMP_pressure;BME280_temperature;BME280_humidity;BME280_pressure;Samples;Min_cycle;Max_cycle;Signal;HPM_P1;HPM_P2
2022/08/07 00:01:08;;;;;;;3.42;1.50;;;12.90;99.90;;;;;;5015795;28;20497;-67
2022/08/07 00:03:34;;;;;;;2.90;1.42;;;12.90;99.90;;;;;;5020190;28;20076;-67
2022/08/07 00:06:00;;;;;;;2.95;1.40;;;12.90;99.90;;;;;;5032886;28;20490;-67
2022/08/07 00:08:26;;;;;;;4.78;1.90;;;12.90;99.90;;;;;;5051645;28;20507;-67
2022/08/07 00:10:52;;;;;;;2.63;1.60;;;12.80;99.90;;;;;;5052075;28;20036;-67
2022/08/07 00:13:20;;;;;;;2.30;1.30;;;12.90;99.90;;;;;;5034367;28;20102;-67
2022/08/07 00:15:46;;;;;;;2.67;1.52;;;12.90;99.90;;;;;;5051739;28;20057;-67
2022/08/07 00:18:16;;;;;;;2.95;1.60;;;12.80;99.90;;;;;;5034986;28;20084;-67
2022/08/07 00:20:42;;;;;;;2.90;1.48;;;12.80;99.90;;;;;;5051968;28;20063;-67
2022/08/07 00:23:08;;;;;;;3.40;1.80;;;12.80;99.90;;;;;;5050144;28;20501;-67
2022/08/07 00:25:35;;;;;;;2.53;1.48;;;12.80;99.90;;;;;;5034952;28;20037;-67
2022/08/07 00:28:00;;;;;;;3.88;2.00;;;12.80;99.90;;;;;;5051464;28;20090;-67
2022/08/07 00:30:26;;;;;;;3.63;1.85;;;12.80;99.90;;;;;;5051576;28;20029;-67
2022/08/07 00:32:52;;;;;;;2.08;1.40;;;12.70;99.90;;;;;;5050273;28;20045;-67
2022/08/07 00:35:18;;;;;;;3.92;1.80;;;12.70;99.90;;;;;;5051799;28;20397;-66
2022/08/07 00:37:44;;;;;;;2.65;1.50;;;12.70;99.90;;;;;;5050114;28;20497;-67
2022/08/07 00:40:10;;;;;;;2.80;1.50;;;12.70;99.90;;;;;;5051412;28;20412;-66
2022/08/07 00:42:36;;;;;;;3.47;1.73;;;12.70;99.90;;;;;;5047382;28;20060;-66
2022/08/07 00:45:02;;;;;;;3.63;1.77;;;12.60;99.90;;;;;;5036343;28;20485;-67
2022/08/07 00:47:29;;;;;;;3.88;2.10;;;12.80;99.90;;;;;;5028998;28;20079;-67
2022/08/07 00:49:55;;;;;;;4.47;2.20;;;12.40;99.90;;;;;;5054830;28;20086;-66
2022/08/07 00:52:20;;;;;;;5.70;2.25;;;12.30;99.90;;;;;;5037654;28;20128;-67
2022/08/07 00:54:47;;;;;;;4.90;2.60;;;12.30;99.90;;;;;;5037444;28;20471;-67
2022/08/07 00:57:13;;;;;;;5.00;2.70;;;12.10;99.90;;;;;;5038720;28;20432;-67
2022/08/07 00:59:38;;;;;;;6.88;2.80;;;11.90;99.90;;;;;;5054098;28;20044;-67
2022/08/07 01:02:06;;;;;;;5.97;2.83;;;11.90;99.90;;;;;;5069960;28;20045;-67
2022/08/07 01:04:31;;;;;;;4.68;2.38;;;11.80;99.90;;;;;;5037206;28;20053;-67
2022/08/07 01:06:57;;;;;;;4.18;2.20;;;11.90;99.90;;;;;;5049957;28;20033;-67
2022/08/07 01:09:24;;;;;;;3.85;1.92;;;11.90;99.90;;;;;;5051065;28;20493;-67
2022/08/07 01:11:53;;;;;;;3.97;2.13;;;11.90;99.90;;;;;;5034929;28;20234;-67
2022/08/07 01:14:21;;;;;;;5.40;2.28;;;12.00;99.90;;;;;;5044862;28;20132;-66
2022/08/07 01:16:47;;;;;;;4.07;2.03;;;12.00;99.90;;;;;;5042753;28;20053;-67
2022/08/07 01:19:14;;;;;;;3.17;1.60;;;12.00;99.90;;;;;;5036149;28;20045;-67
2022/08/07 01:21:40;;;;;;;3.22;1.60;;;12.00;99.90;;;;;;5064250;28;20099;-66
2022/08/07 01:24:07;;;;;;;2.92;1.67;;;12.00;99.90;;;;;;5041615;28;20033;-67
2022/08/07 01:26:33;;;;;;;3.42;1.90;;;12.00;99.90;;;;;;5036677;28;20037;-67
2022/08/07 01:28:59;;;;;;;3.90;2.08;;;12.00;99.90;;;;;;5046851;28;20490;-67
2022/08/07 01:31:32;;;;;;;5.35;2.40;;;11.90;99.90;;;;;;5064017;28;20516;-66
2022/08/07 01:33:59;;;;;;;4.20;1.95;;;11.80;99.90;;;;;;5027772;28;20041;-67
2022/08/07 01:36:26;;;;;;;2.22;1.38;;;11.80;99.90;;;;;;5036564;28;20481;-67
2022/08/07 01:38:52;;;;;;;2.78;1.58;;;11.80;99.90;;;;;;5033709;28;20060;-67
2022/08/07 01:41:21;;;;;;;3.05;1.60;;;11.80;99.90;;;;;;5018032;28;20041;-67
2022/08/07 01:43:48;;;;;;;3.35;1.90;;;11.70;99.90;;;;;;5049947;28;20409;-67
2022/08/07 01:46:16;;;;;;;3.97;2.10;;;11.70;99.90;;;;;;5054185;28;20029;-67
2022/08/07 01:48:43;;;;;;;4.43;2.30;;;11.60;99.90;;;;;;5033473;28;20049;-67
2022/08/07 01:51:17;;;;;;;3.80;1.80;;;11.60;99.90;;;;;;5047958;28;20469;-67
2022/08/07 01:53:46;;;;;;;2.20;1.30;;;11.60;99.90;;;;;;5033847;28;20048;-66
2022/08/07 01:56:16;;;;;;;2.17;1.15;;;11.60;99.90;;;;;;5054842;28;20116;-66
2022/08/07 01:58:48;;;;;;;1.08;0.90;;;11.70;99.90;;;;;;5053886;28;20051;-67
2022/08/07 02:01:22;;;;;;;1.30;0.90;;;11.60;99.90;;;;;;5050049;28;20049;-67
2022/08/07 02:04:00;;;;;;;1.25;0.85;;;11.70;99.90;;;;;;5034255;28;20402;-67
2022/08/07 02:06:30;;;;;;;2.95;0.95;;;11.70;99.90;;;;;;5024816;28;20033;-67
2022/08/07 02:09:00;;;;;;;1.58;0.95;;;11.70;99.90;;;;;;5051230;28;20095;-66
2022/08/07 02:11:26;;;;;;;2.28;0.98;;;11.70;99.90;;;;;;5041173;28;20049;-67
2022/08/07 02:13:53;;;;;;;2.72;1.45;;;11.60;99.90;;;;;;5051669;28;20555;-67
2022/08/07 02:16:23;;;;;;;3.08;1.60;;;11.50;99.90;;;;;;5049563;28;20490;-67
2022/08/07 02:18:49;;;;;;;4.15;1.85;;;11.50;99.90;;;;;;5048097;28;20044;-67
2022/08/07 02:21:16;;;;;;;2.28;1.00;;;11.50;99.90;;;;;;5050533;28;20406;-67
2022/08/07 02:23:43;;;;;;;2.53;1.20;;;11.50;99.90;;;;;;5038027;28;20060;-67
2022/08/07 02:26:10;;;;;;;2.63;1.30;;;11.50;99.90;;;;;;5031503;28;20116;-67
2022/08/07 02:28:37;;;;;;;2.00;1.17;;;11.40;99.90;;;;;;5048112;28;20029;-67
2022/08/07 02:31:05;;;;;;;1.63;1.08;;;11.40;99.90;;;;;;5036897;28;20386;-67
2022/08/07 02:33:32;;;;;;;1.95;1.20;;;11.40;99.90;;;;;;5043345;28;20069;-67
2022/08/07 02:35:58;;;;;;;2.67;1.50;;;11.40;99.90;;;;;;5046736;28;20052;-67
2022/08/07 02:38:27;;;;;;;2.08;1.33;;;11.40;99.90;;;;;;5046945;28;20041;-67
2022/08/07 02:40:54;;;;;;;3.88;1.60;;;11.30;99.90;;;;;;5045797;28;20052;-67
2022/08/07 02:43:21;;;;;;;2.15;1.20;;;11.30;99.90;;;;;;5069619;28;20129;-67
2022/08/07 02:45:49;;;;;;;1.02;0.70;;;11.30;99.90;;;;;;5044116;28;20550;-67
2022/08/07 02:48:15;;;;;;;1.42;0.90;;;11.30;99.90;;;;;;5037722;28;20033;-67
2022/08/07 02:50:43;;;;;;;1.20;0.75;;;11.40;99.90;;;;;;5041338;28;20044;-67
2022/08/07 02:53:14;;;;;;;0.50;0.40;;;11.40;99.90;;;;;;5031053;28;20033;-67
2022/08/07 02:55:46;;;;;;;0.60;0.50;;;11.40;99.90;;;;;;5029346;28;20053;-67
2022/08/07 02:58:16;;;;;;;1.05;0.70;;;11.30;99.90;;;;;;5041553;28;20116;-67
2022/08/07 03:00:42;;;;;;;1.25;0.70;;;11.30;99.90;;;;;;5016399;28;20045;-67
2022/08/07 03:03:09;;;;;;;1.20;0.60;;;11.30;99.90;;;;;;5049780;28;20044;-67
2022/08/07 03:05:36;;;;;;;0.50;0.50;;;11.30;99.90;;;;;;5049969;28;20045;-67
2022/08/07 03:08:04;;;;;;;1.27;0.80;;;11.30;99.90;;;;;;5041934;28;20120;-67
2022/08/07 03:10:31;;;;;;;2.58;1.27;;;11.30;99.90;;;;;;5043681;28;20033;-67
2022/08/07 03:12:58;;;;;;;1.77;0.93;;;11.20;99.90;;;;;;5035496;28;20521;-67
2022/08/07 03:15:24;;;;;;;2.08;0.85;;;11.20;99.90;;;;;;5032140;28;20044;-67
2022/08/07 03:17:50;;;;;;;1.83;0.70;;;11.20;99.90;;;;;;5022956;28;20128;-67
2022/08/07 03:20:15;;;;;;;0.70;0.50;;;11.20;99.90;;;;;;5060519;28;20148;-67
2022/08/07 03:22:43;;;;;;;1.40;0.65;;;11.20;99.90;;;;;;5028766;28;20049;-67
2022/08/07 03:25:09;;;;;;;1.73;0.90;;;11.20;99.90;;;;;;5028932;28;20120;-66
2022/08/07 03:27:35;;;;;;;1.65;1.10;;;11.20;99.90;;;;;;5038942;28;20167;-66
2022/08/07 03:30:01;;;;;;;1.42;0.95;;;11.00;99.90;;;;;;5046125;28;20029;-67
2022/08/07 03:32:33;;;;;;;1.65;1.00;;;11.00;99.90;;;;;;5034684;28;20044;-67
2022/08/07 03:35:01;;;;;;;2.10;1.00;;;10.90;99.90;;;;;;5046405;28;20041;-67
2022/08/07 03:37:31;;;;;;;2.00;1.15;;;10.90;99.90;;;;;;5052868;28;20397;-67
2022/08/07 03:39:58;;;;;;;3.75;1.55;;;10.90;99.90;;;;;;5062761;28;20048;-67
2022/08/07 03:42:24;;;;;;;4.07;1.90;;;10.80;99.90;;;;;;5035586;28;20044;-66
2022/08/07 03:44:51;;;;;;;3.65;1.50;;;10.60;99.90;;;;;;5036495;28;20041;-66
2022/08/07 03:47:17;;;;;;;2.22;1.17;;;10.50;99.90;;;;;;5048258;28;20120;-67
2022/08/07 03:49:43;;;;;;;1.38;0.90;;;10.50;99.90;;;;;;5047137;28;20635;-67
2022/08/07 03:52:10;;;;;;;1.38;0.80;;;10.60;99.90;;;;;;5041874;28;20490;-67
2022/08/07 03:54:36;;;;;;;1.70;1.00;;;10.60;99.90;;;;;;5049113;28;20076;-67
2022/08/07 03:57:05;;;;;;;1.33;0.80;;;10.70;99.90;;;;;;5063370;28;20120;-66
2022/08/07 03:59:31;;;;;;;2.53;1.20;;;10.70;99.90;;;;;;5051990;28;20128;-67
2022/08/07 04:01:57;;;;;;;1.77;1.10;;;10.70;99.90;;;;;;5040830;28;20041;-67
2022/08/07 04:04:23;;;;;;;2.80;1.20;;;10.70;99.90;;;;;;5026916;28;20390;-67
2022/08/07 04:06:49;;;;;;;1.45;1.00;;;10.70;99.90;;;;;;5042058;28;20029;-66
2022/08/07 04:09:15;;;;;;;2.13;1.15;;;10.70;99.90;;;;;;5051936;28;20431;-67
2022/08/07 04:11:43;;;;;;;1.95;0.90;;;10.80;99.90;;;;;;5050255;28;20115;-67
2022/08/07 04:14:09;;;;;;;3.38;1.27;;;10.70;99.90;;;;;;5033384;28;20079;-66
2022/08/07 04:16:35;;;;;;;2.53;1.30;;;10.70;99.90;;;;;;5041598;28;20060;-67
2022/08/07 04:19:02;;;;;;;3.55;1.48;;;10.70;99.90;;;;;;5032040;28;20040;-66
2022/08/07 04:21:28;;;;;;;2.70;0.98;;;10.70;99.90;;;;;;5038367;28;20118;-66
2022/08/07 04:23:54;;;;;;;1.98;1.20;;;10.70;99.90;;;;;;5050080;28;20037;-67
2022/08/07 04:26:20;;;;;;;2.47;1.00;;;10.70;99.90;;;;;;5033096;28;20044;-67
2022/08/07 04:28:46;;;;;;;1.75;1.25;;;10.70;99.90;;;;;;5058375;28;20489;-67
2022/08/07 04:31:11;;;;;;;2.47;1.48;;;10.60;99.90;;;;;;5032988;28;20033;-67
2022/08/07 04:33:39;;;;;;;3.17;1.63;;;10.60;99.90;;;;;;5064375;28;20033;-66
2022/08/07 04:36:09;;;;;;;4.28;1.98;;;10.50;99.90;;;;;;5041517;28;20431;-66
2022/08/07 04:38:36;;;;;;;4.20;1.95;;;10.50;99.90;;;;;;5078930;28;20036;-67
2022/08/07 04:41:02;;;;;;;4.75;2.10;;;10.50;99.90;;;;;;5063024;28;20036;-66
2022/08/07 04:43:37;;;;;;;2.72;1.50;;;10.40;99.90;;;;;;5055198;28;20037;-66
2022/08/07 04:46:30;;;;;;;2.33;1.25;;;10.50;99.90;;;;;;5052462;28;20429;-67
2022/08/07 04:49:20;;;;;;;2.70;1.63;;;10.50;99.90;;;;;;5069558;28;20118;-67
2022/08/07 04:52:13;;;;;;;5.57;2.58;;;10.50;99.90;;;;;;5042810;28;20120;-67
2022/08/07 04:54:58;;;;;;;6.10;2.70;;;10.50;99.90;;;;;;5034831;28;20064;-67
2022/08/07 04:57:45;;;;;;;6.80;3.70;;;10.50;99.90;;;;;;5042876;28;20375;-66
2022/08/07 05:00:14;;;;;;;6.82;3.67;;;10.60;99.90;;;;;;5052282;28;20382;-67
2022/08/07 05:02:43;;;;;;;7.30;4.10;;;10.60;99.90;;;;;;5045746;28;20045;-67
2022/08/07 05:05:22;;;;;;;8.10;3.90;;;10.60;99.90;;;;;;5050373;28;20041;-67
2022/08/07 05:08:19;;;;;;;7.93;4.20;;;10.70;99.90;;;;;;5070561;28;20111;-67
2022/08/07 05:10:49;;;;;;;7.43;4.00;;;10.70;99.90;;;;;;5050164;28;20029;-66
2022/08/07 05:13:16;;;;;;;8.80;4.72;;;10.80;99.90;;;;;;5017475;28;20092;-67
2022/08/07 05:15:47;;;;;;;8.95;5.03;;;10.80;99.90;;;;;;5058944;28;20511;-67
2022/08/07 05:18:22;;;;;;;9.48;5.22;;;10.80;99.90;;;;;;5032137;28;20553;-67
2022/08/07 05:20:52;;;;;;;9.15;5.05;;;10.90;99.90;;;;;;5053487;28;20080;-67
2022/08/07 05:23:29;;;;;;;11.00;5.05;;;10.90;99.90;;;;;;5067824;28;20044;-67
2022/08/07 05:25:56;;;;;;;8.73;5.05;;;10.90;99.90;;;;;;5033524;28;20036;-67
2022/08/07 05:28:23;;;;;;;8.38;4.80;;;10.90;99.90;;;;;;5058790;28;20063;-67
2022/08/07 05:30:50;;;;;;;8.40;4.68;;;11.00;99.90;;;;;;5045451;28;20036;-67
2022/08/07 05:33:16;;;;;;;8.50;4.75;;;11.10;99.90;;;;;;5046038;28;20040;-67
2022/08/07 05:35:43;;;;;;;7.65;3.97;;;11.10;99.90;;;;;;5031377;28;20413;-67
2022/08/07 05:38:10;;;;;;;8.55;4.93;;;11.20;99.90;;;;;;5043531;28;20048;-67
2022/08/07 05:40:37;;;;;;;8.77;4.80;;;11.30;99.90;;;;;;5051992;28;20086;-67
2022/08/07 05:43:03;;;;;;;9.23;5.68;;;11.40;99.90;;;;;;5052359;28;20052;-67
2022/08/07 05:45:29;;;;;;;10.75;5.70;;;11.30;99.90;;;;;;5057829;28;20040;-67
2022/08/07 05:47:55;;;;;;;8.15;5.15;;;11.40;99.90;;;;;;5048399;28;20508;-66
2022/08/07 05:50:22;;;;;;;9.25;5.00;;;11.50;99.90;;;;;;5050729;28;20122;-67
2022/08/07 05:52:48;;;;;;;8.65;5.05;;;11.60;99.90;;;;;;5052042;28;20047;-67
2022/08/07 05:55:13;;;;;;;10.50;5.82;;;11.60;99.90;;;;;;5047900;28;20041;-66
2022/08/07 05:57:41;;;;;;;10.25;5.40;;;11.70;99.90;;;;;;5042236;28;20390;-67
2022/08/07 06:00:08;;;;;;;8.98;5.47;;;11.80;99.90;;;;;;5022343;28;20508;-67
2022/08/07 06:02:35;;;;;;;9.15;5.45;;;11.90;99.90;;;;;;5043738;28;20045;-67
2022/08/07 06:05:10;;;;;;;9.73;5.80;;;12.00;99.90;;;;;;5046118;28;20033;-67
2022/08/07 06:07:36;;;;;;;9.07;5.72;;;12.20;99.90;;;;;;5046941;28;20045;-66
2022/08/07 06:10:02;;;;;;;11.13;6.53;;;12.30;99.90;;;;;;5065986;28;20540;-66
2022/08/07 06:12:28;;;;;;;10.82;6.55;;;12.50;99.90;;;;;;5029156;28;1043652;-66
2022/08/07 06:14:54;;;;;;;11.50;6.20;;;12.70;99.90;;;;;;5053728;28;20075;-66
2022/08/07 06:17:21;;;;;;;10.15;6.45;;;12.80;99.90;;;;;;5044296;28;20460;-66
2022/08/07 06:19:48;;;;;;;11.20;6.93;;;13.00;99.90;;;;;;5043002;28;20067;-66
2022/08/07 06:22:15;;;;;;;10.70;6.78;;;13.10;99.90;;;;;;5050100;28;20045;-67
2022/08/07 06:24:41;;;;;;;12.15;6.95;;;13.30;99.90;;;;;;5067087;28;20037;-66
2022/08/07 06:27:07;;;;;;;12.38;7.97;;;13.50;99.90;;;;;;5044389;28;20120;-66
2022/08/07 06:29:33;;;;;;;11.02;7.38;;;13.60;99.90;;;;;;5043143;28;20107;-66
2022/08/07 06:31:59;;;;;;;11.90;8.35;;;13.80;99.90;;;;;;5046199;28;20480;-66
2022/08/07 06:34:26;;;;;;;12.20;8.10;;;13.90;99.90;;;;;;5061389;28;20501;-66
2022/08/07 06:36:52;;;;;;;12.50;7.75;;;14.10;99.90;;;;;;5032603;28;20037;-66
2022/08/07 06:39:18;;;;;;;12.43;8.50;;;14.20;99.90;;;;;;5055710;28;20128;-66
2022/08/07 06:42:06;;;;;;;12.98;8.93;;;14.40;99.90;;;;;;5034990;28;20049;-66
2022/08/07 06:44:33;;;;;;;13.82;8.93;;;14.60;99.90;;;;;;5052569;28;20033;-74
2022/08/07 06:46:59;;;;;;;12.60;8.60;;;14.70;99.90;;;;;;5041644;28;20535;-72
2022/08/07 06:49:24;;;;;;;12.65;8.93;;;14.80;99.90;;;;;;5048728;28;20034;-72
2022/08/07 06:51:51;;;;;;;11.98;8.00;;;15.00;99.90;;;;;;5065021;28;20045;-72
2022/08/07 06:54:19;;;;;;;14.18;8.77;;;15.10;99.90;;;;;;5033056;28;20080;-71
2022/08/07 06:56:46;;;;;;;10.60;8.10;;;15.30;99.90;;;;;;5045414;28;20043;-71
2022/08/07 06:59:18;;;;;;;13.18;8.52;;;15.40;99.90;;;;;;5025233;28;20060;-67
2022/08/07 07:01:44;;;;;;;11.05;7.80;;;15.50;99.90;;;;;;5016120;28;20090;-67
2022/08/07 07:04:12;;;;;;;12.93;7.70;;;15.60;99.90;;;;;;5045934;28;20052;-67
2022/08/07 07:06:38;;;;;;;12.52;7.07;;;15.70;99.90;;;;;;5041539;28;20037;-67
2022/08/07 07:09:21;;;;;;;11.75;6.97;;;15.90;99.90;;;;;;5040300;28;20044;-67
2022/08/07 07:12:02;;;;;;;11.90;6.85;;;16.00;99.90;;;;;;5034908;28;20037;-66
2022/08/07 07:14:35;;;;;;;9.48;6.20;;;16.10;99.90;;;;;;5032215;28;20061;-67
2022/08/07 07:17:07;;;;;;;11.77;6.60;;;16.20;99.90;;;;;;5051169;28;20076;-67
2022/08/07 07:19:39;;;;;;;11.30;6.65;;;16.30;99.90;;;;;;5033647;28;20029;-67
2022/08/07 07:22:07;;;;;;;11.57;6.40;;;16.40;99.90;;;;;;5032563;28;20045;-67
2022/08/07 07:24:33;;;;;;;9.63;5.10;;;16.40;99.90;;;;;;5040427;28;20044;-67
2022/08/07 07:27:02;;;;;;;7.68;4.55;;;16.50;99.90;;;;;;5050413;28;20037;-67
2022/08/07 07:29:33;;;;;;;10.20;5.65;;;16.60;99.90;;;;;;5050096;28;20487;-67
2022/08/07 07:32:02;;;;;;;9.93;4.93;;;16.70;99.90;;;;;;5032203;28;20498;-67
2022/08/07 07:34:30;;;;;;;7.00;3.85;;;16.80;99.90;;;;;;5041368;28;20375;-67
2022/08/07 07:36:59;;;;;;;6.80;3.55;;;16.90;99.90;;;;;;5028336;28;20064;-67
2022/08/07 07:39:26;;;;;;;6.88;3.75;;;17.00;99.90;;;;;;5048871;28;20056;-67
2022/08/07 07:41:55;;;;;;;8.05;3.92;;;17.10;99.90;;;;;;5055532;28;20095;-67
2022/08/07 07:44:21;;;;;;;7.35;3.42;;;17.20;99.90;;;;;;5049975;28;20087;-67
2022/08/07 07:46:48;;;;;;;5.40;3.10;;;17.30;99.90;;;;;;5050373;28;20617;-67
2022/08/07 07:49:17;;;;;;;5.47;3.15;;;17.30;99.90;;;;;;5052005;28;20048;-67
2022/08/07 07:51:45;;;;;;;6.13;3.13;;;17.40;99.90;;;;;;5033924;28;20094;-67
2022/08/07 07:54:13;;;;;;;5.78;2.60;;;17.50;99.90;;;;;;5047292;28;20037;-67
2022/08/07 07:56:40;;;;;;;5.70;2.58;;;17.60;99.90;;;;;;5016515;28;20125;-67
2022/08/07 07:59:06;;;;;;;5.07;2.70;;;17.60;99.90;;;;;;5048221;28;20042;-67
2022/08/07 08:01:36;;;;;;;4.47;2.50;;;17.70;99.90;;;;;;5031395;28;20041;-67
2022/08/07 08:04:05;;;;;;;5.50;2.55;;;17.70;99.90;;;;;;5048096;28;20041;-67
2022/08/07 08:06:32;;;;;;;5.10;2.67;;;17.70;99.90;;;;;;5021422;28;20083;-67
2022/08/07 08:09:00;;;;;;;6.57;2.95;;;17.80;99.90;;;;;;5048530;28;20044;-67
2022/08/07 08:11:26;;;;;;;5.25;2.80;;;18.00;99.90;;;;;;5059174;28;20086;-67
2022/08/07 08:13:51;;;;;;;5.40;2.65;;;18.00;99.90;;;;;;5062431;28;20131;-71
2022/08/07 08:16:20;;;;;;;5.35;2.95;;;18.00;99.90;;;;;;5065189;28;22140;-71
2022/08/07 08:18:50;;;;;;;6.05;3.10;;;18.10;99.90;;;;;;5030837;28;20486;-71
2022/08/07 08:27:07;;;;;;;5.93;3.22;;;18.20;99.90;;;;;;5050190;28;20044;-71
2022/08/07 08:29:45;;;;;;;7.63;3.45;;;18.20;99.90;;;;;;5019474;28;20041;-72
2022/08/07 08:32:14;;;;;;;9.25;3.40;;;18.30;99.90;;;;;;5047748;28;20094;-71
2022/08/07 08:34:40;;;;;;;7.85;2.95;;;18.40;99.90;;;;;;5040910;28;20137;-72
2022/08/07 08:37:09;;;;;;;6.00;3.22;;;18.50;99.90;;;;;;5049935;28;20033;-69
2022/08/07 08:39:36;;;;;;;4.95;2.78;;;18.60;99.90;;;;;;5034607;28;20128;-70
2022/08/07 08:42:22;;;;;;;6.50;3.53;;;18.60;99.90;;;;;;5036377;28;20036;-70
2022/08/07 08:44:53;;;;;;;6.22;3.10;;;18.70;99.90;;;;;;5044644;28;20037;-69
2022/08/07 08:47:26;;;;;;;6.45;3.10;;;18.80;99.90;;;;;;5030205;28;20029;-69
2022/08/07 08:49:57;;;;;;;6.43;2.90;;;18.90;99.90;;;;;;5014828;28;20047;-68
2022/08/07 08:52:45;;;;;;;5.82;2.90;;;19.00;99.90;;;;;;5051315;28;20458;-67
2022/08/07 08:55:34;;;;;;;6.03;3.45;;;19.10;99.90;;;;;;5054571;28;20138;-67
2022/08/07 08:58:09;;;;;;;5.57;2.92;;;19.00;99.90;;;;;;5029005;28;20170;-68
2022/08/07 09:00:56;;;;;;;6.20;3.42;;;19.20;99.90;;;;;;5031520;28;20121;-67
2022/08/07 09:04:03;;;;;;;6.22;3.22;;;19.30;99.90;;;;;;5045798;28;20067;-68
2022/08/07 09:06:44;;;;;;;7.00;3.08;;;19.40;99.90;;;;;;5043350;28;20044;-67
2022/08/07 09:09:47;;;;;;;5.40;2.78;;;19.40;99.90;;;;;;5043769;28;20049;-68
2022/08/07 09:12:16;;;;;;;6.68;3.20;;;19.50;99.90;;;;;;5053902;28;20037;-67
2022/08/07 09:15:01;;;;;;;7.07;3.15;;;19.60;99.90;;;;;;5054203;28;20053;-67
2022/08/07 09:17:37;;;;;;;5.35;2.65;;;19.70;99.90;;;;;;5054745;28;20493;-67
2022/08/07 09:20:34;;;;;;;6.88;3.15;;;19.80;99.90;;;;;;5057232;28;20044;-67
2022/08/07 09:23:30;;;;;;;6.25;3.10;;;19.80;99.90;;;;;;5036310;28;20042;-67
2022/08/07 09:26:22;;;;;;;6.57;3.33;;;19.80;99.90;;;;;;5033855;28;20527;-68
2022/08/07 09:28:53;;;;;;;8.10;3.10;;;19.90;99.90;;;;;;5052195;28;20037;-68
2022/08/07 09:31:22;;;;;;;6.25;3.13;;;19.90;99.90;;;;;;5048855;28;20038;-67
2022/08/07 09:34:06;;;;;;;6.30;3.38;;;20.00;99.90;;;;;;5063741;28;20044;-67
2022/08/07 09:36:38;;;;;;;8.40;3.25;;;20.00;99.90;;;;;;5052060;28;20036;-68
2022/08/07 09:39:15;;;;;;;6.57;3.30;;;20.10;99.90;;;;;;5033680;28;20041;-68
2022/08/07 09:41:59;;;;;;;5.15;2.70;;;20.20;99.90;;;;;;5035550;28;20132;-67
2022/08/07 09:44:43;;;;;;;5.32;2.45;;;20.30;99.90;;;;;;5054235;28;20086;-68
2022/08/07 09:47:30;;;;;;;4.65;2.45;;;20.50;99.90;;;;;;5053831;28;20041;-67
2022/08/07 09:50:00;;;;;;;6.15;2.75;;;20.60;99.90;;;;;;5053434;28;20037;-67
2022/08/07 09:52:38;;;;;;;6.45;2.80;;;20.60;99.90;;;;;;5035266;28;20090;-68
2022/08/07 09:55:17;;;;;;;5.40;2.50;;;20.70;99.90;;;;;;5049672;28;20087;-68
2022/08/07 09:57:59;;;;;;;4.93;2.70;;;20.50;99.90;;;;;;5049794;28;20037;-68
2022/08/07 10:00:31;;;;;;;4.15;2.25;;;20.70;99.90;;;;;;5046223;28;20037;-68
2022/08/07 10:03:33;;;;;;;5.32;2.30;;;20.80;99.90;;;;;;5038514;28;20440;-68
2022/08/07 10:06:37;;;;;;;4.63;2.30;;;20.70;99.90;;;;;;5052107;28;20044;-68
2022/08/07 10:09:12;;;;;;;5.28;2.35;;;20.80;99.90;;;;;;5025210;28;20133;-68
2022/08/07 10:11:54;;;;;;;6.63;2.58;;;20.60;99.90;;;;;;5037967;28;20041;-67
2022/08/07 10:14:38;;;;;;;5.30;2.53;;;20.60;99.90;;;;;;5036023;28;20103;-68
2022/08/07 10:17:32;;;;;;;6.10;2.40;;;20.60;99.90;;;;;;5036947;28;20044;-68
2022/08/07 10:20:19;;;;;;;3.88;2.38;;;20.60;99.90;;;;;;5033174;28;20037;-68
2022/08/07 10:23:16;;;;;;;5.05;2.50;;;20.70;99.90;;;;;;5045682;28;20041;-68
2022/08/07 10:26:12;;;;;;;4.13;2.22;;;20.80;99.50;;;;;;5050244;28;20037;-68
2022/08/07 10:28:40;;;;;;;4.75;2.45;;;20.70;94.40;;;;;;5022924;28;20091;-68
2022/08/07 10:31:16;;;;;;;6.32;2.45;;;20.80;94.60;;;;;;5048393;28;20044;-68
2022/08/07 10:34:14;;;;;;;5.00;2.33;;;20.90;98.00;;;;;;5026627;28;20041;-68
2022/08/07 10:36:58;;;;;;;5.10;2.50;;;21.00;98.10;;;;;;5034206;28;20494;-68
2022/08/07 10:39:49;;;;;;;4.30;2.40;;;21.10;99.80;;;;;;5039572;28;20082;-68
2022/08/07 10:42:35;;;;;;;5.53;2.63;;;21.10;98.80;;;;;;5037755;28;20559;-69
2022/08/07 10:45:23;;;;;;;6.25;2.88;;;21.20;97.80;;;;;;5045529;28;20052;-68
2022/08/07 10:48:05;;;;;;;4.82;2.60;;;21.30;99.40;;;;;;5045232;28;20037;-68
2022/08/07 10:50:34;;;;;;;;;;;21.30;98.80;;;;;;5061512;28;20052;-68
2022/08/07 10:53:11;;;;;;;4.50;2.50;;;21.30;97.90;;;;;;5033720;28;19924;-68
2022/08/07 10:55:59;;;;;;;3.95;2.40;;;21.40;98.60;;;;;;5056170;28;20044;-68
2022/08/07 10:59:05;;;;;;;6.47;2.72;;;21.50;99.10;;;;;;5042720;28;20084;-68
2022/08/07 11:01:36;;;;;;;4.10;2.33;;;21.50;98.60;;;;;;5046503;28;20393;-68
2022/08/07 11:04:29;;;;;;;4.90;2.50;;;21.30;97.80;;;;;;5038094;28;20497;-68
2022/08/07 11:07:07;;;;;;;6.43;2.70;;;21.00;96.50;;;;;;5053266;28;20044;-68
2022/08/07 11:09:46;;;;;;;4.10;2.20;;;20.90;98.40;;;;;;5036491;28;20329;-68
2022/08/07 11:12:36;;;;;;;3.22;2.10;;;20.90;98.80;;;;;;5056048;28;20083;-68
2022/08/07 11:15:10;;;;;;;4.63;2.50;;;21.10;98.90;;;;;;5051466;28;20053;-68
2022/08/07 11:17:57;;;;;;;3.78;2.30;;;21.20;98.70;;;;;;5044594;28;20044;-68
2022/08/07 11:20:48;;;;;;;4.72;2.15;;;21.20;98.80;;;;;;5041756;28;20041;-68
2022/08/07 11:23:43;;;;;;;5.35;2.00;;;21.30;98.50;;;;;;5046698;28;20557;-68
2022/08/07 11:26:15;;;;;;;4.50;2.20;;;21.50;96.00;;;;;;5008595;28;20730;-68
2022/08/07 11:29:05;;;;;;;4.03;2.10;;;21.50;95.60;;;;;;5038662;28;20041;-68
2022/08/07 11:31:38;;;;;;;5.70;2.00;;;21.50;95.40;;;;;;5027284;28;20081;-68
2022/08/07 11:34:23;;;;;;;3.50;1.90;;;21.40;95.60;;;;;;5040191;28;20045;-68
2022/08/07 11:37:18;;;;;;;3.17;1.80;;;21.50;96.90;;;;;;5039168;28;20486;-68
2022/08/07 11:40:03;;;;;;;3.08;1.70;;;21.60;94.90;;;;;;5021679;28;20103;-68
2022/08/07 11:42:49;;;;;;;2.92;1.90;;;21.70;91.60;;;;;;5021206;28;20037;-68
2022/08/07 11:45:26;;;;;;;2.83;1.70;;;21.50;92.50;;;;;;5036617;28;20045;-74
2022/08/07 11:47:55;;;;;;;4.40;2.03;;;21.50;93.00;;;;;;5046296;28;20544;-68
2022/08/07 11:50:45;;;;;;;3.47;1.83;;;21.50;92.80;;;;;;5042447;28;20042;-68
2022/08/07 11:53:49;;;;;;;4.13;1.88;;;21.50;93.20;;;;;;5023205;28;20048;-68
2022/08/07 11:56:58;;;;;;;4.53;1.98;;;21.60;93.40;;;;;;5032739;28;20516;-68
2022/08/07 11:59:37;;;;;;;4.82;1.75;;;21.60;94.80;;;;;;5031054;28;20037;-68
2022/08/07 12:02:29;;;;;;;3.35;1.80;;;21.60;92.30;;;;;;5045471;28;20045;-69
2022/08/07 12:05:14;;;;;;;4.68;2.00;;;21.70;93.40;;;;;;5041744;28;20034;-68
2022/08/07 12:07:47;;;;;;;4.00;1.95;;;21.70;90.30;;;;;;5015251;28;20068;-68
2022/08/07 12:10:25;;;;;;;3.63;2.03;;;21.60;92.10;;;;;;5043460;28;20067;-68
2022/08/07 12:13:03;;;;;;;4.32;1.80;;;21.60;94.30;;;;;;5047247;28;20155;-68
2022/08/07 12:15:42;;;;;;;5.20;1.90;;;21.70;94.20;;;;;;5040028;28;20120;-68
2022/08/07 12:18:14;;;;;;;3.60;1.85;;;21.70;94.00;;;;;;5032190;28;20170;-68
2022/08/07 12:20:59;;;;;;;3.25;1.65;;;21.70;91.00;;;;;;5032534;28;20041;-68
2022/08/07 12:23:58;;;;;;;3.80;1.75;;;21.70;90.70;;;;;;5037201;28;20040;-68
2022/08/07 12:26:35;;;;;;;3.70;1.80;;;21.70;89.10;;;;;;5015969;28;20077;-69
2022/08/07 12:29:40;;;;;;;4.15;1.80;;;21.70;91.70;;;;;;5042143;28;20422;-68
2022/08/07 12:32:14;;;;;;;2.53;1.50;;;21.80;91.40;;;;;;5014524;28;20061;-68
2022/08/07 12:34:42;;;;;;;3.40;1.70;;;21.90;92.50;;;;;;5043085;28;20116;-68
2022/08/07 12:37:10;;;;;;;7.00;1.98;;;22.00;92.70;;;;;;5016832;28;20040;-68
2022/08/07 12:39:39;;;;;;;4.25;2.13;;;22.00;94.30;;;;;;5030728;28;20037;-69
2022/08/07 12:42:07;;;;;;;4.45;1.70;;;22.10;94.20;;;;;;5021086;28;20406;-68
2022/08/07 12:44:35;;;;;;;4.55;1.85;;;22.20;93.50;;;;;;5051865;28;20041;-68
2022/08/07 12:47:17;;;;;;;4.18;1.83;;;22.20;92.30;;;;;;5023799;28;20033;-68
2022/08/07 12:50:05;;;;;;;3.33;1.60;;;22.10;91.30;;;;;;5037528;28;20436;-68
2022/08/07 12:52:33;;;;;;;3.22;1.65;;;22.10;92.30;;;;;;5062041;28;20041;-68
2022/08/07 12:55:28;;;;;;;3.05;1.50;;;22.10;92.40;;;;;;5040330;28;20053;-68
2022/08/07 12:57:58;;;;;;;4.47;1.80;;;22.10;91.40;;;;;;5001509;28;20048;-68
2022/08/07 13:00:48;;;;;;;3.20;1.40;;;22.10;91.30;;;;;;5045916;28;20099;-68
2022/08/07 13:03:38;;;;;;;3.08;1.58;;;22.10;91.90;;;;;;5045031;28;20045;-68
2022/08/07 13:06:25;;;;;;;3.67;1.70;;;22.10;92.00;;;;;;5041619;28;20033;-68
2022/08/07 13:09:14;;;;;;;3.15;1.50;;;22.00;92.40;;;;;;5054260;28;20382;-68
2022/08/07 13:12:05;;;;;;;2.42;1.50;;;22.10;90.40;;;;;;5021805;28;20045;-68
2022/08/07 13:14:56;;;;;;;2.80;1.80;;;22.00;93.30;;;;;;5046137;28;20455;-68
2022/08/07 13:18:06;;;;;;;3.70;1.63;;;22.10;93.10;;;;;;5034829;28;20044;-69
2022/08/07 13:20:49;;;;;;;3.58;1.80;;;22.00;90.80;;;;;;5032480;28;20032;-68
2022/08/07 13:23:27;;;;;;;2.50;1.65;;;21.90;92.40;;;;;;5036066;28;20560;-68